createdAt,value
2022-12-08T00:00:17.641Z,95.89
2022-12-08T00:02:46.659Z,95.84
2022-12-08T00:05:33.059Z,95.92
2022-12-08T00:08:21.234Z,95.88
2022-12-08T00:10:50.323Z,95.96
2022-12-08T00:13:19.381Z,95.97
2022-12-08T00:15:48.313Z,95.77
2022-12-08T00:18:17.483Z,95.77
2022-12-08T00:20:46.533Z,95.65
2022-12-08T00:23:17.094Z,95.69
2022-12-08T00:25:46.215Z,95.69
2022-12-08T00:28:15.203Z,95.82
2022-12-08T00:30:44.678Z,95.63
2022-12-08T00:33:13.895Z,95.50
2022-12-08T00:35:43.383Z,95.59
2022-12-08T00:38:12.563Z,95.77
2022-12-08T00:40:46.897Z,96.12
2022-12-08T00:43:16.435Z,96.02
2022-12-08T00:45:45.543Z,96.07
2022-12-08T00:48:14.551Z,95.90
2022-12-08T00:50:43.576Z,95.82
2022-12-08T00:53:12.544Z,95.99
2022-12-08T00:55:41.589Z,95.90
2022-12-08T00:58:12.008Z,95.90
2022-12-08T01:00:42.312Z,95.70
2022-12-08T01:03:11.744Z,95.96
2022-12-08T01:05:41.141Z,95.72
2022-12-08T01:08:10.508Z,95.79
2022-12-08T01:10:40.772Z,95.76
2022-12-08T01:13:11.478Z,95.84
2022-12-08T01:15:40.507Z,95.74
2022-12-08T01:18:09.504Z,95.50
2022-12-08T01:20:38.554Z,95.59
2022-12-08T01:23:07.621Z,95.67
2022-12-08T01:25:36.745Z,95.78
2022-12-08T01:28:06.835Z,95.69
2022-12-08T01:30:40.194Z,95.69
2022-12-08T01:33:09.345Z,95.80
2022-12-08T01:35:40.493Z,95.80
2022-12-08T01:38:09.447Z,95.55
2022-12-08T01:40:38.376Z,95.65
2022-12-08T01:43:07.555Z,95.76
2022-12-08T01:45:38.234Z,95.56
2022-12-08T01:48:12.723Z,95.62
2022-12-08T01:50:44.330Z,95.53
2022-12-08T01:53:18.104Z,95.68
2022-12-08T01:55:53.993Z,95.61
2022-12-08T01:58:28.390Z,95.69
2022-12-08T02:00:58.821Z,95.63
2022-12-08T02:03:32.900Z,95.68
2022-12-08T02:06:03.414Z,95.87
2022-12-08T02:08:33.043Z,95.98
2022-12-08T02:11:02.040Z,95.99
2022-12-08T02:13:32.823Z,95.85
2022-12-08T02:16:11.515Z,95.92
2022-12-08T02:19:22.380Z,96.13
2022-12-08T02:21:53.864Z,96.23
2022-12-08T02:24:32.801Z,96.41
2022-12-08T02:27:29.356Z,96.49
2022-12-08T02:30:25.300Z,96.60
2022-12-08T02:33:17.868Z,96.62
2022-12-08T02:35:57.810Z,96.47
2022-12-08T02:38:45.768Z,96.63
2022-12-08T02:41:31.966Z,96.67
2022-12-08T02:44:07.449Z,96.80
2022-12-08T02:46:41.539Z,96.99
2022-12-08T02:49:14.724Z,96.97
2022-12-08T02:51:45.194Z,97.17
2022-12-08T02:54:15.632Z,97.45
2022-12-08T02:57:04.279Z,97.56
2022-12-08T02:59:44.197Z,97.38
2022-12-08T03:02:56.473Z,97.88
2022-12-08T03:05:40.222Z,98.00
2022-12-08T03:08:21.438Z,97.93
2022-12-08T03:10:58.365Z,98.13
2022-12-08T03:13:34.856Z,98.29
2022-12-08T03:16:08.584Z,98.06
2022-12-08T03:18:43.950Z,98.24
2022-12-08T03:21:16.152Z,98.45
2022-12-08T03:23:49.419Z,98.55
2022-12-08T03:26:24.092Z,98.68
2022-12-08T03:28:53.118Z,98.67
2022-12-08T03:31:26.213Z,98.67
2022-12-08T03:33:58.064Z,98.89
2022-12-08T03:36:27.845Z,98.70
2022-12-08T03:38:58.453Z,99.14
2022-12-08T03:41:27.912Z,99.02
2022-12-08T03:43:59.604Z,98.74
2022-12-08T03:48:59.122Z,98.96
2022-12-08T03:51:28.426Z,98.93
2022-12-08T03:53:58.846Z,98.83
2022-12-08T03:56:31.127Z,98.73
2022-12-08T03:59:00.570Z,98.74
2022-12-08T04:01:29.862Z,98.89
2022-12-08T04:03:59.093Z,99.09
2022-12-08T04:06:28.207Z,98.81
2022-12-08T04:08:58.747Z,98.87
2022-12-08T04:11:27.754Z,98.63
2022-12-08T04:13:56.831Z,98.47
2022-12-08T04:16:28.095Z,98.10
2022-12-08T04:18:57.180Z,98.28
2022-12-08T04:21:26.242Z,98.08
2022-12-08T04:24:00.816Z,98.40
2022-12-08T04:26:32.115Z,98.21
2022-12-08T04:29:01.160Z,98.19
2022-12-08T04:31:30.461Z,98.27
2022-12-08T04:33:59.464Z,98.00
2022-12-08T04:36:28.502Z,98.02
2022-12-08T04:38:57.701Z,98.36
2022-12-08T04:41:27.877Z,98.59
2022-12-08T04:43:58.338Z,98.80
2022-12-08T04:46:27.643Z,99.08
2022-12-08T04:48:57.222Z,99.25
2022-12-08T04:51:27.476Z,100.00
2022-12-08T04:53:56.466Z,99.94
2022-12-08T04:56:25.638Z,99.73
2022-12-08T04:58:54.735Z,99.27
2022-12-08T05:01:25.199Z,98.77
2022-12-08T05:03:54.216Z,98.65
2022-12-08T05:06:24.584Z,99.10
2022-12-08T05:08:53.676Z,99.56
2022-12-08T05:11:22.740Z,99.37
2022-12-08T05:13:51.842Z,99.75
2022-12-08T05:16:21.900Z,100.00
2022-12-08T05:18:52.401Z,100.00
2022-12-08T05:21:21.550Z,100.00
2022-12-08T05:23:50.606Z,100.00
2022-12-08T05:26:20.040Z,100.00
2022-12-08T05:28:49.293Z,100.00
2022-12-08T05:31:18.609Z,100.00
2022-12-08T05:33:48.391Z,100.00
2022-12-08T05:36:19.470Z,100.00
2022-12-08T05:38:48.859Z,100.00
2022-12-08T05:41:20.209Z,100.00
2022-12-08T05:43:50.309Z,100.00
2022-12-08T05:46:20.211Z,100.00
2022-12-08T05:48:49.328Z,100.00
2022-12-08T05:51:22.760Z,100.00
2022-12-08T05:53:52.911Z,100.00
2022-12-08T05:56:22.650Z,100.00
2022-12-08T05:58:51.991Z,100.00
2022-12-08T06:01:23.833Z,100.00
2022-12-08T06:03:53.286Z,100.00
2022-12-08T06:06:23.964Z,100.00
2022-12-08T06:08:53.171Z,100.00
2022-12-08T06:11:24.667Z,100.00
2022-12-08T06:13:54.607Z,100.00
2022-12-08T06:16:24.457Z,100.00
2022-12-08T06:18:53.645Z,100.00
2022-12-08T06:21:24.357Z,100.00
2022-12-08T06:23:55.456Z,100.00
2022-12-08T06:26:24.654Z,100.00
2022-12-08T06:28:54.059Z,100.00
2022-12-08T06:31:24.712Z,100.00
2022-12-08T06:33:54.979Z,100.00
2022-12-08T06:36:27.953Z,100.00
2022-12-08T06:38:57.217Z,100.00
2022-12-08T06:41:26.896Z,100.00
2022-12-08T06:43:58.408Z,99.85
2022-12-08T06:46:27.877Z,99.43
2022-12-08T06:48:56.846Z,98.52
2022-12-08T06:51:27.178Z,98.20
2022-12-08T06:53:56.321Z,98.63
2022-12-08T06:56:28.080Z,99.16
2022-12-08T06:58:57.082Z,99.60
2022-12-08T07:01:26.304Z,99.55
2022-12-08T07:03:55.429Z,99.74
2022-12-08T07:06:26.766Z,99.99
2022-12-08T07:08:55.966Z,100.00
2022-12-08T07:11:25.565Z,100.00
2022-12-08T07:13:56.754Z,100.00
2022-12-08T07:16:26.082Z,100.00
2022-12-08T07:18:55.207Z,100.00
2022-12-08T07:21:24.283Z,100.00
2022-12-08T07:23:57.829Z,99.59
2022-12-08T07:26:28.052Z,99.03
2022-12-08T07:28:57.116Z,98.11
2022-12-08T07:31:28.576Z,97.57
2022-12-08T07:33:58.779Z,97.24
2022-12-08T07:36:29.031Z,96.49
2022-12-08T07:38:59.899Z,96.04
2022-12-08T07:41:29.137Z,95.42
2022-12-08T07:43:58.267Z,94.59
2022-12-08T07:46:28.068Z,94.36
2022-12-08T07:48:57.570Z,93.94
2022-12-08T07:51:26.759Z,93.87
2022-12-08T07:53:56.010Z,94.06
2022-12-08T07:56:26.547Z,93.61
2022-12-08T07:58:55.553Z,93.58
2022-12-08T08:01:27.249Z,93.50
2022-12-08T08:03:58.507Z,93.74
2022-12-08T08:06:27.674Z,93.55
2022-12-08T08:08:56.622Z,92.59
2022-12-08T08:11:27.099Z,92.88
2022-12-08T08:13:56.167Z,92.75
2022-12-08T08:16:25.685Z,92.88
2022-12-08T08:18:54.822Z,92.94
2022-12-08T08:24:13.243Z,92.39
2022-12-08T08:26:44.261Z,92.19
2022-12-08T08:29:13.324Z,92.23
2022-12-08T08:31:42.404Z,92.16
2022-12-08T08:34:12.807Z,92.31
2022-12-08T08:36:41.880Z,92.49
2022-12-08T08:39:10.951Z,93.16
2022-12-08T08:41:40.422Z,93.15
2022-12-08T08:44:10.845Z,92.82
2022-12-08T08:46:39.997Z,92.97
2022-12-08T08:49:09.237Z,92.66
2022-12-08T08:51:38.505Z,92.00
2022-12-08T08:54:07.683Z,92.02
2022-12-08T08:56:36.721Z,91.22
2022-12-08T08:59:05.699Z,90.70
2022-12-08T09:01:36.173Z,90.76
2022-12-08T09:04:05.305Z,90.85
2022-12-08T09:06:34.522Z,90.62
2022-12-08T09:09:03.550Z,90.44
2022-12-08T09:11:33.873Z,90.49
2022-12-08T09:14:02.926Z,90.67
2022-12-08T09:16:34.149Z,91.01
2022-12-08T09:19:07.971Z,91.21
2022-12-08T09:21:37.819Z,91.62
2022-12-08T09:24:08.410Z,91.29
2022-12-08T09:26:37.442Z,91.58
2022-12-08T09:29:06.568Z,91.65
2022-12-08T09:31:35.655Z,91.70
2022-12-08T09:34:06.121Z,91.66
2022-12-08T09:36:36.595Z,91.77
2022-12-08T09:39:05.610Z,91.85
2022-12-08T09:41:43.304Z,92.00
2022-12-08T09:44:57.408Z,91.46
2022-12-08T09:47:35.488Z,91.45
2022-12-08T09:50:13.654Z,91.51
2022-12-08T09:52:48.182Z,91.55
2022-12-08T09:55:23.848Z,91.86
2022-12-08T09:58:01.304Z,91.83
2022-12-08T10:00:30.700Z,91.90
2022-12-08T10:03:00.269Z,91.99
2022-12-08T10:05:33.344Z,91.61
2022-12-08T10:08:13.541Z,91.40
2022-12-08T10:10:53.489Z,91.23
2022-12-08T10:13:29.729Z,91.44
2022-12-08T10:16:15.262Z,91.70
2022-12-08T10:18:48.230Z,91.74
2022-12-08T10:21:20.600Z,91.77
2022-12-08T10:23:54.574Z,91.59
2022-12-08T10:26:23.772Z,91.86
2022-12-08T10:28:53.013Z,91.91
2022-12-08T10:31:24.417Z,91.76
2022-12-08T10:33:59.638Z,92.01
2022-12-08T10:36:48.303Z,93.63
2022-12-08T10:39:36.959Z,95.41
2022-12-08T10:42:18.438Z,94.66
2022-12-08T10:45:02.030Z,93.76
2022-12-08T10:47:37.950Z,93.27
2022-12-08T10:50:19.398Z,93.15
2022-12-08T10:52:56.795Z,93.08
2022-12-08T10:55:28.172Z,93.06
2022-12-08T10:57:57.508Z,93.07
2022-12-08T11:00:29.053Z,93.40
2022-12-08T11:03:00.703Z,93.36
2022-12-08T11:05:34.870Z,93.42
2022-12-08T11:08:06.028Z,93.55
2022-12-08T11:10:39.296Z,93.06
2022-12-08T11:13:19.810Z,93.68
2022-12-08T11:15:49.048Z,94.56
2022-12-08T11:18:28.879Z,94.52
2022-12-08T11:21:02.004Z,94.17
2022-12-08T11:23:31.735Z,94.33
2022-12-08T11:26:07.543Z,94.27
2022-12-08T11:28:36.714Z,94.41
2022-12-08T11:31:23.771Z,94.64
2022-12-08T11:33:54.208Z,94.96
2022-12-08T11:36:26.868Z,95.19
2022-12-08T11:39:01.599Z,95.38
2022-12-08T11:41:38.038Z,95.83
2022-12-08T11:44:20.640Z,96.39
2022-12-08T11:46:57.031Z,96.68
2022-12-08T11:49:34.701Z,96.81
2022-12-08T11:52:12.285Z,96.92
2022-12-08T11:54:46.677Z,97.15
2022-12-08T11:57:20.741Z,97.29
2022-12-08T11:59:51.424Z,97.46
2022-12-08T12:02:22.830Z,97.78
2022-12-08T12:04:56.458Z,97.81
2022-12-08T12:07:54.246Z,97.90
2022-12-08T12:10:42.172Z,98.02
2022-12-08T12:13:34.158Z,97.91
2022-12-08T12:16:30.462Z,97.54
2022-12-08T12:19:01.528Z,97.55
2022-12-08T12:21:35.882Z,97.78
2022-12-08T12:24:08.090Z,98.13
2022-12-08T12:26:39.174Z,98.44
2022-12-08T12:29:17.014Z,98.76
2022-12-08T12:31:53.338Z,98.91
2022-12-08T12:34:26.269Z,98.96
2022-12-08T12:36:57.852Z,99.17
2022-12-08T12:39:30.864Z,99.22
2022-12-08T12:42:01.877Z,99.26
2022-12-08T12:44:43.553Z,99.44
2022-12-08T12:47:37.327Z,99.44
2022-12-08T12:50:09.320Z,99.35
2022-12-08T12:52:42.686Z,99.15
2022-12-08T12:55:44.891Z,99.17
2022-12-08T12:58:39.312Z,99.23
2022-12-08T13:01:57.128Z,99.32
2022-12-08T13:04:34.305Z,99.11
2022-12-08T13:07:03.942Z,99.38
2022-12-08T13:09:36.877Z,99.36
2022-12-08T13:12:11.580Z,99.58
2022-12-08T13:14:48.183Z,99.68
2022-12-08T13:17:25.685Z,99.78
2022-12-08T13:19:58.894Z,100.00
2022-12-08T13:23:02.537Z,100.00
2022-12-08T13:25:54.311Z,100.00
2022-12-08T13:28:28.983Z,100.00
2022-12-08T13:30:59.865Z,100.00
2022-12-08T13:33:33.599Z,100.00
2022-12-08T13:36:23.892Z,100.00
2022-12-08T13:38:58.156Z,100.00
2022-12-08T13:41:35.920Z,100.00
2022-12-08T13:45:11.356Z,100.00
2022-12-08T13:47:33.522Z,100.00
2022-12-08T13:58:51.370Z,100.00
2022-12-08T14:01:23.301Z,100.00
2022-12-08T14:06:50.183Z,100.00
2022-12-08T14:09:25.079Z,100.00
2022-12-08T14:11:58.466Z,100.00
2022-12-08T14:15:01.291Z,100.00
2022-12-08T14:17:25.276Z,100.00
2022-12-08T14:19:56.847Z,100.00
2022-12-08T14:22:26.392Z,100.00
2022-12-08T14:24:59.515Z,100.00
2022-12-08T14:27:33.770Z,100.00
2022-12-08T14:30:07.576Z,100.00
2022-12-08T14:32:44.344Z,100.00
2022-12-08T14:35:21.226Z,100.00
2022-12-08T14:37:54.937Z,100.00
2022-12-08T14:40:35.320Z,100.00
2022-12-08T14:43:16.518Z,100.00
2022-12-08T14:45:50.837Z,100.00
2022-12-08T14:48:25.522Z,100.00
2022-12-08T14:51:05.585Z,100.00
2022-12-08T14:53:43.035Z,100.00
2022-12-08T14:56:21.688Z,100.00
2022-12-08T14:59:02.631Z,100.00
2022-12-08T15:01:32.414Z,100.00
2022-12-08T15:04:09.888Z,100.00
2022-12-08T15:06:39.589Z,100.00
2022-12-08T15:09:19.059Z,100.00
2022-12-08T15:12:02.130Z,100.00
2022-12-08T15:14:34.208Z,100.00
2022-12-08T15:17:03.470Z,100.00
2022-12-08T15:19:34.238Z,100.00
2022-12-08T15:22:13.398Z,100.00
2022-12-08T15:24:42.498Z,100.00
2022-12-08T15:27:18.612Z,100.00
2022-12-08T15:29:48.965Z,100.00
2022-12-08T15:32:20.344Z,100.00
2022-12-08T15:34:49.723Z,100.00
2022-12-08T15:37:23.016Z,100.00
2022-12-08T15:39:53.013Z,100.00
2022-12-08T15:42:23.570Z,100.00
2022-12-08T15:44:52.873Z,100.00
2022-12-08T15:47:24.028Z,100.00
2022-12-08T15:49:53.886Z,100.00
2022-12-08T15:52:25.766Z,100.00
2022-12-08T15:54:55.054Z,100.00
2022-12-08T16:00:51.809Z,100.00
2022-12-08T16:09:13.097Z,100.00
2022-12-08T16:12:07.732Z,100.00
2022-12-08T16:17:33.174Z,100.00
2022-12-08T16:20:03.808Z,100.00
2022-12-08T16:22:56.757Z,100.00
2022-12-08T16:25:36.316Z,100.00
2022-12-08T16:28:52.009Z,100.00
2022-12-08T16:31:13.331Z,100.00
2022-12-08T16:33:43.920Z,100.00
2022-12-08T16:36:12.938Z,100.00
2022-12-08T16:38:42.088Z,100.00
2022-12-08T16:41:32.693Z,100.00
2022-12-08T16:44:03.898Z,100.00
2022-12-08T16:46:36.107Z,100.00
2022-12-08T16:49:06.274Z,100.00
2022-12-08T16:51:35.812Z,100.00
2022-12-08T16:54:05.086Z,100.00
2022-12-08T16:56:34.471Z,100.00
2022-12-08T16:59:07.055Z,100.00
2022-12-08T17:01:38.545Z,100.00
2022-12-08T17:04:30.429Z,100.00
2022-12-08T17:07:00.404Z,100.00
2022-12-08T17:09:30.915Z,100.00
2022-12-08T17:12:03.675Z,100.00
2022-12-08T17:14:35.788Z,100.00
2022-12-08T17:17:06.568Z,100.00
2022-12-08T17:19:36.105Z,100.00
2022-12-08T17:22:05.796Z,100.00
2022-12-08T17:24:38.295Z,100.00
2022-12-08T17:27:07.769Z,100.00
2022-12-08T17:29:38.121Z,100.00
2022-12-08T17:32:09.727Z,100.00
2022-12-08T17:34:39.072Z,100.00
2022-12-08T17:37:08.200Z,100.00
2022-12-08T17:39:38.690Z,100.00
2022-12-08T17:42:08.089Z,100.00
2022-12-08T17:44:37.270Z,100.00
2022-12-08T17:47:08.272Z,100.00
2022-12-08T17:49:37.397Z,100.00
2022-12-08T17:52:08.187Z,100.00
2022-12-08T17:54:37.892Z,100.00
2022-12-08T17:57:07.050Z,100.00
2022-12-08T17:59:36.663Z,100.00
2022-12-08T18:02:05.840Z,100.00
2022-12-08T18:04:36.379Z,100.00
2022-12-08T18:07:05.507Z,100.00
2022-12-08T18:09:34.761Z,100.00
2022-12-08T18:12:03.916Z,100.00
2022-12-08T18:14:33.057Z,100.00
2022-12-08T18:17:02.767Z,100.00
2022-12-08T18:19:32.609Z,100.00
2022-12-08T18:22:03.225Z,100.00
2022-12-08T18:24:32.544Z,100.00
2022-12-08T18:27:01.955Z,100.00
2022-12-08T18:29:31.065Z,100.00
2022-12-08T18:32:00.842Z,100.00
2022-12-08T18:34:30.206Z,100.00
2022-12-08T18:36:59.422Z,100.00
2022-12-08T18:39:31.697Z,100.00
2022-12-08T18:42:02.736Z,100.00
2022-12-08T18:44:31.737Z,100.00
2022-12-08T18:47:00.920Z,100.00
2022-12-08T18:49:29.955Z,100.00
2022-12-08T18:51:59.045Z,100.00
2022-12-08T18:54:57.782Z,100.00
2022-12-08T18:57:20.359Z,100.00
2022-12-08T18:59:54.225Z,100.00
2022-12-08T19:02:23.938Z,100.00
2022-12-08T19:04:56.825Z,100.00
2022-12-08T19:07:26.038Z,100.00
2022-12-08T19:09:56.541Z,100.00
2022-12-08T19:12:25.497Z,100.00
2022-12-08T19:14:54.691Z,100.00
2022-12-08T19:17:23.740Z,100.00
2022-12-08T19:19:53.083Z,100.00
2022-12-08T19:22:22.101Z,100.00
2022-12-08T19:24:51.259Z,100.00
2022-12-08T19:27:21.721Z,100.00
2022-12-08T19:29:50.994Z,100.00
2022-12-08T19:32:20.180Z,100.00
2022-12-08T19:34:49.667Z,100.00
2022-12-08T19:37:18.746Z,100.00
2022-12-08T19:40:05.921Z,100.00
2022-12-08T19:42:54.070Z,100.00
2022-12-08T19:45:23.662Z,100.00
2022-12-08T19:47:53.184Z,100.00
2022-12-08T19:50:37.692Z,100.00
2022-12-08T19:53:08.448Z,100.00
2022-12-08T19:55:38.216Z,100.00
2022-12-08T19:58:09.703Z,100.00
2022-12-08T20:00:40.253Z,100.00
2022-12-08T20:03:09.608Z,100.00
2022-12-08T20:05:41.944Z,100.00
2022-12-08T20:08:11.416Z,100.00
2022-12-08T20:10:43.383Z,100.00
2022-12-08T20:13:36.610Z,100.00
2022-12-08T20:16:06.111Z,100.00
2022-12-08T20:18:36.513Z,100.00
2022-12-08T20:21:06.099Z,100.00
2022-12-08T20:23:35.810Z,100.00
2022-12-08T20:26:06.130Z,100.00
2022-12-08T20:28:37.311Z,100.00
2022-12-08T20:31:06.996Z,100.00
2022-12-08T20:33:36.351Z,100.00
2022-12-08T20:36:07.603Z,100.00
2022-12-08T20:38:37.015Z,100.00
2022-12-08T20:41:10.169Z,100.00
2022-12-08T20:43:41.224Z,100.00
2022-12-08T20:46:11.157Z,100.00
2022-12-08T20:48:40.511Z,100.00
2022-12-08T20:51:09.813Z,100.00
2022-12-08T20:53:38.882Z,100.00
2022-12-08T20:56:09.134Z,100.00
2022-12-08T20:58:38.152Z,100.00
2022-12-08T21:01:12.371Z,100.00
2022-12-08T21:03:42.254Z,100.00
2022-12-08T21:06:11.894Z,100.00
2022-12-08T21:08:41.340Z,100.00
2022-12-08T21:11:11.742Z,100.00
2022-12-08T21:13:41.019Z,100.00
2022-12-08T21:16:15.233Z,100.00
2022-12-08T21:18:44.333Z,100.00
2022-12-08T21:21:15.762Z,100.00
2022-12-08T21:23:45.310Z,100.00
2022-12-08T21:26:16.543Z,100.00
2022-12-08T21:28:45.961Z,100.00
2022-12-08T21:31:18.966Z,100.00
2022-12-08T21:33:48.230Z,100.00
2022-12-08T21:36:19.746Z,100.00
2022-12-08T21:38:49.367Z,100.00
2022-12-08T21:41:40.964Z,100.00
2022-12-08T21:44:12.596Z,100.00
2022-12-08T21:46:43.720Z,100.00
2022-12-08T21:49:12.965Z,100.00
2022-12-08T21:51:42.813Z,100.00
2022-12-08T21:54:18.347Z,100.00
2022-12-08T21:56:50.457Z,100.00
2022-12-08T21:59:20.962Z,100.00
2022-12-08T22:01:51.780Z,100.00
2022-12-08T22:04:22.690Z,100.00
2022-12-08T22:06:53.300Z,100.00
2022-12-08T22:09:23.771Z,100.00
2022-12-08T22:11:53.046Z,100.00
2022-12-08T22:14:22.136Z,100.00
2022-12-08T22:16:52.642Z,100.00
2022-12-08T22:19:22.201Z,100.00
2022-12-08T22:21:51.437Z,100.00
2022-12-08T22:24:20.601Z,100.00
2022-12-08T22:26:49.954Z,100.00
2022-12-08T22:29:19.508Z,100.00
2022-12-08T22:31:48.793Z,100.00
2022-12-08T22:34:19.544Z,100.00
2022-12-08T22:36:49.132Z,100.00
2022-12-08T22:39:19.190Z,100.00
2022-12-08T22:41:48.485Z,100.00
2022-12-08T22:44:17.561Z,100.00
2022-12-08T22:46:46.732Z,100.00
2022-12-08T22:49:15.857Z,100.00
2022-12-08T22:51:46.498Z,100.00
2022-12-08T22:54:15.549Z,100.00
2022-12-08T22:56:44.579Z,100.00
2022-12-08T22:59:13.666Z,100.00
2022-12-08T23:01:42.995Z,100.00
2022-12-08T23:04:17.408Z,100.00
2022-12-08T23:06:48.324Z,100.00
2022-12-08T23:09:17.253Z,100.00
2022-12-08T23:11:46.380Z,100.00
2022-12-08T23:14:15.362Z,100.00
2022-12-08T23:16:44.937Z,100.00
2022-12-08T23:19:14.814Z,100.00
2022-12-08T23:21:43.802Z,100.00
2022-12-08T23:24:14.561Z,100.00
2022-12-08T23:26:44.354Z,100.00
2022-12-08T23:29:13.479Z,100.00
2022-12-08T23:31:42.577Z,100.00
2022-12-08T23:34:12.163Z,100.00
2022-12-08T23:36:41.412Z,100.00
2022-12-08T23:39:13.321Z,100.00
2022-12-08T23:41:43.226Z,100.00
2022-12-08T23:44:12.577Z,100.00
2022-12-08T23:46:42.177Z,100.00
2022-12-08T23:49:11.470Z,100.00
2022-12-08T23:51:40.457Z,100.00
2022-12-08T23:54:09.777Z,100.00
2022-12-08T23:56:40.260Z,100.00
2022-12-08T23:59:09.402Z,100.00
